Time;durP1;ratioP1;P1;durP2;ratioP2;P2;SDS_P1;SDS_P2;PMS_P1;PMS_P2;Temp;Humidity;BMP_temperature;BMP_pressure;BME280_temperature;BME280_humidity;BME280_pressure;Samples;Min_cycle;Max_cycle;Signal;HPM_P1;HPM_P2
2023/10/01 00:00:37;;;;;;;6.90;4.80;;;;;;;;;;5099383;28;20211;-72
2023/10/01 00:03:06;;;;;;;8.87;4.70;;;;;;;;;;5096429;28;20209;-71
2023/10/01 00:05:34;;;;;;;7.87;4.70;;;;;;;;;;5091609;28;20244;-72
2023/10/01 00:08:01;;;;;;;11.27;4.80;;;;;;;;;;5090887;28;20215;-71
2023/10/01 00:10:28;;;;;;;10.90;4.00;;;;;;;;;;5100718;28;20248;-72
2023/10/01 00:12:56;;;;;;;7.20;4.13;;;;;;;;;;5108696;28;20230;-71
2023/10/01 00:15:24;;;;;;;7.00;4.43;;;;;;;;;;5101137;28;20225;-72
2023/10/01 00:17:51;;;;;;;12.33;5.70;;;;;;;;;;5111105;28;20210;-72
2023/10/01 00:20:23;;;;;;;8.97;4.40;;;;;;;;;;5111064;28;20253;-72
2023/10/01 00:22:54;;;;;;;4.47;3.97;;;;;;;;;;5107603;28;20200;-71
2023/10/01 00:25:22;;;;;;;4.93;4.00;;;;;;;;;;5091413;28;20683;-71
2023/10/01 00:27:48;;;;;;;5.87;3.37;;;;;;;;;;5109773;28;20199;-71
2023/10/01 00:30:15;;;;;;;5.77;4.30;;;;;;;;;;5099720;28;20212;-71
2023/10/01 00:32:42;;;;;;;9.60;4.53;;;;;;;;;;5104347;28;20261;-71
2023/10/01 00:35:11;;;;;;;7.87;3.93;;;;;;;;;;5103922;28;20229;-72
2023/10/01 00:37:38;;;;;;;5.30;3.97;;;;;;;;;;5097637;28;20284;-71
2023/10/01 00:40:10;;;;;;;5.43;4.27;;;;;;;;;;5098096;28;20210;-71
2023/10/01 00:42:38;;;;;;;6.93;3.50;;;;;;;;;;5097602;28;20218;-71
2023/10/01 00:45:07;;;;;;;9.80;4.07;;;;;;;;;;5109689;28;20202;-72
2023/10/01 00:47:34;;;;;;;6.40;4.30;;;;;;;;;;5091074;28;20234;-72
2023/10/01 00:50:01;;;;;;;4.90;3.70;;;;;;;;;;5091357;28;20204;-71
2023/10/01 00:52:29;;;;;;;7.20;4.03;;;;;;;;;;5099012;28;20578;-71
2023/10/01 00:54:56;;;;;;;8.90;4.23;;;;;;;;;;5108934;28;20586;-71
2023/10/01 00:57:25;;;;;;;5.63;4.03;;;;;;;;;;5090870;28;20283;-72
2023/10/01 00:59:52;;;;;;;6.10;4.80;;;;;;;;;;5090742;28;20215;-72
2023/10/01 01:02:22;;;;;;;3.83;3.53;;;;;;;;;;5090369;28;20192;-72
2023/10/01 01:05:05;;;;;;;6.83;4.00;;;;;;;;;;5093505;28;20677;-71
2023/10/01 01:07:33;;;;;;;5.80;4.10;;;;;;;;;;5098725;28;20208;-71
2023/10/01 01:10:00;;;;;;;7.47;4.23;;;;;;;;;;5109763;28;20384;-72
2023/10/01 01:12:29;;;;;;;5.53;4.47;;;;;;;;;;5110682;28;20227;-72
2023/10/01 01:14:58;;;;;;;8.87;4.03;;;;;;;;;;5090374;28;20223;-72
2023/10/01 01:17:25;;;;;;;8.77;4.63;;;;;;;;;;5090560;28;20243;-72
2023/10/01 01:19:52;;;;;;;9.30;4.77;;;;;;;;;;5090853;28;20231;-71
2023/10/01 01:22:28;;;;;;;7.33;4.67;;;;;;;;;;5090241;28;20261;-72
2023/10/01 01:25:00;;;;;;;6.70;4.23;;;;;;;;;;5091105;28;20282;-72
2023/10/01 01:27:30;;;;;;;6.83;4.17;;;;;;;;;;5090251;28;20204;-71
2023/10/01 01:29:57;;;;;;;4.90;4.40;;;;;;;;;;5100229;28;20199;-71
2023/10/01 01:32:24;;;;;;;4.47;4.07;;;;;;;;;;5107609;28;20203;-71
2023/10/01 01:34:52;;;;;;;9.10;3.97;;;;;;;;;;5090580;28;20228;-72
2023/10/01 01:37:30;;;;;;;4.03;3.63;;;;;;;;;;5104034;28;20249;-72
2023/10/01 01:39:59;;;;;;;4.50;4.00;;;;;;;;;;5102108;28;20681;-71
2023/10/01 01:42:27;;;;;;;6.67;4.23;;;;;;;;;;5105007;28;20199;-72
2023/10/01 01:45:15;;;;;;;6.00;4.20;;;;;;;;;;5090345;28;20238;-71
2023/10/01 01:47:42;;;;;;;7.67;4.47;;;;;;;;;;5089798;28;20709;-71
2023/10/01 01:50:18;;;;;;;5.70;4.40;;;;;;;;;;5105793;28;20264;-72
2023/10/01 01:52:47;;;;;;;5.83;4.17;;;;;;;;;;5100496;28;20203;-71
2023/10/01 01:55:26;;;;;;;6.67;4.10;;;;;;;;;;5090013;28;20261;-71
2023/10/01 01:58:06;;;;;;;5.63;3.77;;;;;;;;;;5093032;28;20206;-71
2023/10/01 02:00:37;;;;;;;6.07;4.00;;;;;;;;;;5093849;28;20239;-71
2023/10/01 02:03:10;;;;;;;6.63;4.30;;;;;;;;;;5093517;28;20211;-71
2023/10/01 02:05:41;;;;;;;5.77;4.60;;;;;;;;;;5103153;28;20214;-71
2023/10/01 02:08:09;;;;;;;5.10;4.03;;;;;;;;;;5110769;28;20594;-71
2023/10/01 02:10:44;;;;;;;7.17;4.30;;;;;;;;;;5093908;28;20207;-71
2023/10/01 02:13:16;;;;;;;5.43;3.80;;;;;;;;;;5098593;28;20283;-71
2023/10/01 02:15:45;;;;;;;6.63;4.13;;;;;;;;;;5113757;28;20238;-71
2023/10/01 02:18:16;;;;;;;4.57;3.90;;;;;;;;;;5100016;28;20260;-71
2023/10/01 02:20:51;;;;;;;8.33;4.23;;;;;;;;;;5100654;28;20268;-71
2023/10/01 02:23:25;;;;;;;6.53;3.80;;;;;;;;;;5093600;28;20202;-72
2023/10/01 02:25:53;;;;;;;8.53;4.43;;;;;;;;;;5106929;28;20254;-71
2023/10/01 02:28:22;;;;;;;5.77;3.83;;;;;;;;;;5102208;28;20198;-72
2023/10/01 02:30:56;;;;;;;4.57;3.93;;;;;;;;;;5099658;28;20204;-72
2023/10/01 02:33:24;;;;;;;7.47;4.07;;;;;;;;;;5103572;28;20209;-72
2023/10/01 02:35:55;;;;;;;11.07;4.87;;;;;;;;;;5092987;28;20314;-71
2023/10/01 02:38:43;;;;;;;4.70;3.77;;;;;;;;;;5093152;28;20257;-72
2023/10/01 02:41:14;;;;;;;6.23;4.00;;;;;;;;;;5100914;28;20289;-71
2023/10/01 02:43:41;;;;;;;7.70;3.90;;;;;;;;;;5111364;28;20200;-71
2023/10/01 02:46:11;;;;;;;4.57;4.10;;;;;;;;;;5101910;28;20684;-72
2023/10/01 02:48:40;;;;;;;4.47;3.67;;;;;;;;;;5097490;28;20208;-72
2023/10/01 02:51:16;;;;;;;6.93;3.87;;;;;;;;;;5092770;28;20202;-72
2023/10/01 02:54:00;;;;;;;4.57;4.17;;;;;;;;;;5106430;28;20217;-72
2023/10/01 02:56:32;;;;;;;5.97;4.47;;;;;;;;;;5106494;28;20255;-71
2023/10/01 02:59:07;;;;;;;7.43;4.23;;;;;;;;;;5100478;28;20200;-72
2023/10/01 03:01:34;;;;;;;4.83;4.27;;;;;;;;;;5111088;28;20195;-71
2023/10/01 03:04:05;;;;;;;5.67;4.13;;;;;;;;;;5092614;28;20237;-71
2023/10/01 03:06:33;;;;;;;6.63;3.93;;;;;;;;;;5107554;28;20211;-71
2023/10/01 03:09:04;;;;;;;9.60;4.63;;;;;;;;;;5102493;28;20199;-71
2023/10/01 03:11:41;;;;;;;7.60;4.73;;;;;;;;;;5095549;28;20211;-72
2023/10/01 03:14:19;;;;;;;7.33;3.87;;;;;;;;;;5101488;28;20311;-71
2023/10/01 03:16:53;;;;;;;6.57;4.27;;;;;;;;;;5098965;28;20236;-71
2023/10/01 03:19:25;;;;;;;5.27;4.23;;;;;;;;;;5098109;28;20215;-72
2023/10/01 03:24:42;;;;;;;8.13;4.10;;;;;;;;;;5094164;28;20754;-72
2023/10/01 03:27:27;;;;;;;4.13;3.83;;;;;;;;;;5104343;28;20699;-72
2023/10/01 03:30:00;;;;;;;7.87;4.13;;;;;;;;;;5092338;28;20594;-72
2023/10/01 03:32:29;;;;;;;5.23;4.17;;;;;;;;;;5105189;28;20713;-71
2023/10/01 03:34:56;;;;;;;3.80;3.50;;;;;;;;;;5091860;28;20263;-72
2023/10/01 03:37:27;;;;;;;4.77;3.97;;;;;;;;;;5108709;28;20211;-72
2023/10/01 03:40:04;;;;;;;5.97;4.40;;;;;;;;;;5102149;28;20202;-72
2023/10/01 03:42:36;;;;;;;5.37;3.67;;;;;;;;;;5110432;28;20196;-71
2023/10/01 03:47:58;;;;;;;6.87;3.90;;;;;;;;;;5070906;28;20212;-72
2023/10/01 03:50:25;;;;;;;3.63;3.30;;;;;;;;;;5095744;28;20261;-72
2023/10/01 03:52:53;;;;;;;5.10;3.80;;;;;;;;;;5101734;28;20622;-72
2023/10/01 03:55:30;;;;;;;5.30;3.80;;;;;;;;;;5091678;28;20312;-71
2023/10/01 03:58:06;;;;;;;4.20;3.80;;;;;;;;;;5091670;28;20241;-72
2023/10/01 04:00:40;;;;;;;7.97;3.93;;;;;;;;;;5111791;28;20262;-71
2023/10/01 04:03:07;;;;;;;6.17;3.70;;;;;;;;;;5111386;28;20206;-71
2023/10/01 04:05:34;;;;;;;5.50;3.67;;;;;;;;;;5112138;28;20232;-71
2023/10/01 04:08:07;;;;;;;6.73;3.93;;;;;;;;;;5109946;28;20230;-72
2023/10/01 04:10:34;;;;;;;5.07;3.83;;;;;;;;;;5091523;28;20213;-72
2023/10/01 04:13:12;;;;;;;5.07;4.37;;;;;;;;;;5091370;28;20690;-71
2023/10/01 04:15:41;;;;;;;7.60;3.87;;;;;;;;;;5101597;28;20306;-71
2023/10/01 04:18:21;;;;;;;6.13;4.20;;;;;;;;;;5093206;28;20203;-72
2023/10/01 04:21:17;;;;;;;4.37;3.80;;;;;;;;;;5091181;28;20207;-72
2023/10/01 04:23:47;;;;;;;8.53;5.23;;;;;;;;;;5101494;28;20259;-72
2023/10/01 04:26:16;;;;;;;4.40;3.43;;;;;;;;;;5090668;28;20206;-72
2023/10/01 04:28:46;;;;;;;4.53;4.13;;;;;;;;;;5103164;28;20684;-71
2023/10/01 04:31:15;;;;;;;6.33;3.70;;;;;;;;;;5105582;28;20207;-72
2023/10/01 04:33:44;;;;;;;6.17;4.17;;;;;;;;;;5104031;28;20203;-71
2023/10/01 04:36:11;;;;;;;7.87;4.00;;;;;;;;;;5090540;28;20225;-72
2023/10/01 04:38:41;;;;;;;7.87;4.33;;;;;;;;;;5090947;28;20197;-71
2023/10/01 04:41:13;;;;;;;6.47;4.40;;;;;;;;;;5090928;28;20199;-71
2023/10/01 04:43:51;;;;;;;5.60;3.87;;;;;;;;;;5104442;28;20212;-72
2023/10/01 04:46:20;;;;;;;10.77;4.13;;;;;;;;;;5101006;28;20201;-71
2023/10/01 04:48:51;;;;;;;4.97;3.97;;;;;;;;;;5097406;28;20202;-71
2023/10/01 04:51:17;;;;;;;6.37;4.07;;;;;;;;;;5099673;28;20231;-71
2023/10/01 04:53:48;;;;;;;4.53;4.10;;;;;;;;;;5095928;28;20195;-71
2023/10/01 04:56:20;;;;;;;4.30;3.90;;;;;;;;;;5099452;28;20231;-71
2023/10/01 04:58:51;;;;;;;4.90;4.07;;;;;;;;;;5110370;28;20201;-71
2023/10/01 05:01:24;;;;;;;7.07;4.57;;;;;;;;;;5097316;28;20203;-71
2023/10/01 05:03:52;;;;;;;4.87;4.40;;;;;;;;;;5090654;28;20298;-72
2023/10/01 05:06:22;;;;;;;5.00;3.83;;;;;;;;;;5090664;28;20199;-72
2023/10/01 05:08:53;;;;;;;6.37;3.57;;;;;;;;;;5098744;28;20290;-71
2023/10/01 05:11:21;;;;;;;7.50;4.33;;;;;;;;;;5096517;28;20647;-72
2023/10/01 05:13:51;;;;;;;4.17;3.80;;;;;;;;;;5111581;28;20294;-72
2023/10/01 05:16:26;;;;;;;4.43;4.03;;;;;;;;;;5094826;28;20318;-71
2023/10/01 05:19:09;;;;;;;5.93;4.33;;;;;;;;;;5090458;28;20206;-71
2023/10/01 05:21:41;;;;;;;8.17;4.23;;;;;;;;;;5090414;28;20201;-71
2023/10/01 05:24:09;;;;;;;6.77;4.10;;;;;;;;;;5090559;28;20264;-72
2023/10/01 05:26:35;;;;;;;5.33;4.23;;;;;;;;;;5090715;28;20203;-71
2023/10/01 05:29:06;;;;;;;5.43;4.33;;;;;;;;;;5103963;28;20568;-72
2023/10/01 05:31:34;;;;;;;6.70;4.27;;;;;;;;;;5090958;28;20681;-72
2023/10/01 05:34:01;;;;;;;4.57;4.17;;;;;;;;;;5097246;28;20233;-73
2023/10/01 05:36:29;;;;;;;4.80;4.37;;;;;;;;;;5114509;28;20225;-73
2023/10/01 05:38:56;;;;;;;3.93;3.53;;;;;;;;;;5100933;28;20217;-73
2023/10/01 05:41:32;;;;;;;4.77;4.13;;;;;;;;;;5114622;28;20697;-72
2023/10/01 05:44:01;;;;;;;6.57;4.13;;;;;;;;;;5114824;28;20223;-73
2023/10/01 05:46:30;;;;;;;6.10;4.07;;;;;;;;;;5114683;28;20252;-73
2023/10/01 05:49:00;;;;;;;3.97;3.57;;;;;;;;;;5108400;28;20203;-73
2023/10/01 05:51:42;;;;;;;4.80;4.30;;;;;;;;;;5106806;28;20198;-74
2023/10/01 05:54:09;;;;;;;7.03;4.13;;;;;;;;;;5094093;28;20677;-72
2023/10/01 05:56:43;;;;;;;4.80;3.97;;;;;;;;;;5108986;28;20226;-71
2023/10/01 05:59:10;;;;;;;4.80;3.63;;;;;;;;;;5114611;28;20226;-71
2023/10/01 06:01:39;;;;;;;6.30;4.30;;;;;;;;;;5097619;28;20622;-70
2023/10/01 06:04:12;;;;;;;5.97;4.37;;;;;;;;;;5104092;28;20738;-70
2023/10/01 06:06:42;;;;;;;5.57;4.87;;;;;;;;;;5109325;28;20693;-70
2023/10/01 06:09:14;;;;;;;7.83;4.50;;;;;;;;;;5093860;28;20204;-71
2023/10/01 06:11:48;;;;;;;6.27;4.67;;;;;;;;;;5106971;28;20237;-70
2023/10/01 06:17:10;;;;;;;4.70;4.03;;;;;;;;;;5088124;27;21121;-73
2023/10/01 06:19:40;;;;;;;5.73;4.10;;;;;;;;;;5087588;28;20227;-73
2023/10/01 06:22:16;;;;;;;4.77;3.87;;;;;;;;;;5087944;28;20205;-72
2023/10/01 06:24:43;;;;;;;4.63;3.80;;;;;;;;;;5087363;28;20222;-72
2023/10/01 06:27:12;;;;;;;6.17;4.43;;;;;;;;;;5088033;28;20759;-72
2023/10/01 06:29:49;;;;;;;7.80;4.53;;;;;;;;;;5087784;28;20197;-73
2023/10/01 06:32:19;;;;;;;10.20;4.83;;;;;;;;;;5087696;28;20200;-73
2023/10/01 06:34:47;;;;;;;5.57;4.90;;;;;;;;;;5088043;28;20630;-73
2023/10/01 06:37:13;;;;;;;7.17;3.60;;;;;;;;;;5086645;28;20284;-73
2023/10/01 06:39:41;;;;;;;5.77;4.07;;;;;;;;;;5087406;28;20209;-72
2023/10/01 06:42:20;;;;;;;7.23;4.53;;;;;;;;;;5087368;28;20288;-72
2023/10/01 06:44:49;;;;;;;5.97;4.43;;;;;;;;;;5087549;28;20200;-73
2023/10/01 06:47:18;;;;;;;7.07;4.47;;;;;;;;;;5087054;28;20322;-72
2023/10/01 06:49:57;;;;;;;6.37;4.30;;;;;;;;;;5087114;28;20614;-73
2023/10/01 06:52:26;;;;;;;5.17;3.90;;;;;;;;;;5086968;28;20204;-73
2023/10/01 06:54:53;;;;;;;4.57;4.17;;;;;;;;;;5087288;28;20632;-72
2023/10/01 06:57:22;;;;;;;7.00;4.97;;;;;;;;;;5087383;28;20261;-73
2023/10/01 06:59:49;;;;;;;4.83;4.30;;;;;;;;;;5087173;28;20200;-73
2023/10/01 07:02:15;;;;;;;8.23;4.90;;;;;;;;;;5087331;28;20207;-73
2023/10/01 07:04:56;;;;;;;11.27;4.43;;;;;;;;;;5087630;28;20295;-72
2023/10/01 07:07:24;;;;;;;4.93;4.40;;;;;;;;;;5087106;28;20232;-73
2023/10/01 07:09:53;;;;;;;6.30;4.47;;;;;;;;;;5087466;28;20204;-70
2023/10/01 07:12:20;;;;;;;4.83;4.33;;;;;;;;;;5086992;28;20211;-70
2023/10/01 07:14:50;;;;;;;8.20;4.30;;;;;;;;;;5086595;28;20246;-70
2023/10/01 07:17:23;;;;;;;6.63;4.37;;;;;;;;;;5087090;28;20208;-70
2023/10/01 07:20:00;;;;;;;4.87;4.37;;;;;;;;;;5086767;28;20262;-70
2023/10/01 07:22:30;;;;;;;12.60;4.53;;;;;;;;;;5086996;28;20205;-70
2023/10/01 07:24:56;;;;;;;5.93;4.33;;;;;;;;;;5086829;28;20257;-70
2023/10/01 07:27:23;;;;;;;6.03;4.37;;;;;;;;;;5079262;28;20233;-70
2023/10/01 07:29:54;;;;;;;6.13;4.23;;;;;;;;;;5073220;28;20201;-70
2023/10/01 07:32:22;;;;;;;6.73;4.67;;;;;;;;;;5072641;28;20668;-70
2023/10/01 07:34:55;;;;;;;5.20;4.67;;;;;;;;;;5073572;28;20592;-70
2023/10/01 07:37:26;;;;;;;7.60;4.67;;;;;;;;;;5072878;28;20197;-70
2023/10/01 07:39:55;;;;;;;6.43;4.47;;;;;;;;;;5073044;28;20201;-70
2023/10/01 07:42:22;;;;;;;9.40;5.20;;;;;;;;;;5072775;28;20212;-70
2023/10/01 07:44:49;;;;;;;4.20;3.80;;;;;;;;;;5073333;28;20255;-70
2023/10/01 07:47:29;;;;;;;8.90;4.43;;;;;;;;;;5072329;28;20295;-70
2023/10/01 07:49:58;;;;;;;5.63;4.50;;;;;;;;;;5073279;28;20205;-70
2023/10/01 07:52:25;;;;;;;4.57;4.17;;;;;;;;;;5046937;28;20205;-70
2023/10/01 07:54:55;;;;;;;8.03;4.73;;;;;;;;;;5072187;28;20201;-70
2023/10/01 07:57:27;;;;;;;7.10;4.43;;;;;;;;;;5072873;28;20209;-70
2023/10/01 07:59:54;;;;;;;7.43;4.47;;;;;;;;;;5072484;28;20204;-70
2023/10/01 08:02:21;;;;;;;5.83;4.10;;;;;;;;;;5072729;28;20212;-70
2023/10/01 08:04:57;;;;;;;5.67;4.40;;;;;;;;;;5072312;28;20201;-70
2023/10/01 08:07:31;;;;;;;5.10;4.60;;;;;;;;;;5072472;28;20229;-70
2023/10/01 08:09:59;;;;;;;4.90;4.20;;;;;;;;;;5072924;28;20205;-70
2023/10/01 08:12:58;;;;;;;7.43;5.07;;;;;;;;;;5072419;28;20259;-70
2023/10/01 08:15:29;;;;;;;6.13;4.23;;;;;;;;;;5072167;28;20723;-70
2023/10/01 08:17:56;;;;;;;8.40;4.73;;;;;;;;;;5072368;28;20289;-70
2023/10/01 08:20:22;;;;;;;6.97;4.70;;;;;;;;;;5072155;28;20706;-70
2023/10/01 08:25:34;;;;;;;5.97;4.20;;;;;;;;;;5061803;28;20341;-71
2023/10/01 08:28:08;;;;;;;4.73;4.33;;;;;;;;;;5072658;28;20201;-70
2023/10/01 08:30:39;;;;;;;6.03;4.60;;;;;;;;;;5072151;28;20209;-71
2023/10/01 08:33:18;;;;;;;7.77;4.10;;;;;;;;;;5071675;28;20213;-70
2023/10/01 08:35:56;;;;;;;6.23;4.57;;;;;;;;;;5071777;28;20205;-70
2023/10/01 08:38:25;;;;;;;5.00;4.50;;;;;;;;;;5071386;28;20300;-70
2023/10/01 08:40:54;;;;;;;8.33;4.53;;;;;;;;;;5071412;28;20201;-70
2023/10/01 08:43:22;;;;;;;7.03;4.50;;;;;;;;;;5071796;28;20711;-70
2023/10/01 08:45:52;;;;;;;4.47;4.07;;;;;;;;;;5071454;28;20221;-70
2023/10/01 08:48:19;;;;;;;5.53;4.60;;;;;;;;;;5071315;28;20639;-70
2023/10/01 08:50:46;;;;;;;4.57;4.10;;;;;;;;;;5072207;28;20204;-70
2023/10/01 08:53:13;;;;;;;6.17;4.60;;;;;;;;;;5071290;28;20204;-70
2023/10/01 08:58:26;;;;;;;8.30;4.43;;;;;;;;;;5071089;28;20304;-70
2023/10/01 09:00:56;;;;;;;7.43;4.30;;;;;;;;;;5070930;28;20201;-70
2023/10/01 09:03:28;;;;;;;5.17;4.60;;;;;;;;;;5071298;28;20237;-70
2023/10/01 09:06:03;;;;;;;7.97;4.97;;;;;;;;;;5071301;28;20656;-70
2023/10/01 09:08:31;;;;;;;7.60;5.17;;;;;;;;;;5071279;28;20228;-70
2023/10/01 09:11:02;;;;;;;5.83;5.00;;;;;;;;;;5071649;28;20579;-71
2023/10/01 09:13:34;;;;;;;7.43;5.13;;;;;;;;;;5059518;28;20200;-70
2023/10/01 09:16:12;;;;;;;4.80;4.40;;;;;;;;;;5070858;28;20715;-70
2023/10/01 09:19:03;;;;;;;7.87;4.47;;;;;;;;;;5071179;28;20201;-70
2023/10/01 09:21:38;;;;;;;6.83;4.03;;;;;;;;;;5070270;28;20197;-70
2023/10/01 09:24:33;;;;;;;10.07;5.00;;;;;;;;;;5070721;28;20285;-71
2023/10/01 09:27:08;;;;;;;4.83;4.33;;;;;;;;;;5070709;28;20323;-70
2023/10/01 09:29:43;;;;;;;4.93;4.43;;;;;;;;;;5070404;28;20314;-71
2023/10/01 09:32:11;;;;;;;7.30;4.60;;;;;;;;;;5070700;28;20253;-71
2023/10/01 09:34:46;;;;;;;5.57;4.80;;;;;;;;;;5044717;28;20204;-70
2023/10/01 09:37:30;;;;;;;7.23;5.17;;;;;;;;;;5070889;28;20200;-70
2023/10/01 09:40:03;;;;;;;5.23;4.57;;;;;;;;;;5071188;28;20224;-70
2023/10/01 09:42:44;;;;;;;6.67;4.63;;;;;;;;;;5070458;28;20229;-70
2023/10/01 09:45:26;;;;;;;4.57;4.17;;;;;;;;;;5070459;28;20203;-71
2023/10/01 09:48:03;;;;;;;5.40;4.90;;;;;;;;;;5070187;28;20225;-70
2023/10/01 09:50:31;;;;;;;5.60;4.17;;;;;;;;;;5070749;28;20196;-70
2023/10/01 09:53:00;;;;;;;4.95;4.50;;;;;;;;;;5070755;28;20209;-70
2023/10/01 09:55:27;;;;;;;5.10;3.93;;;;;;;;;;5070340;28;20208;-70
2023/10/01 09:57:56;;;;;;;6.30;4.82;;;;;;;;;;5071149;28;20278;-70
2023/10/01 10:00:39;;;;;;;6.78;4.22;;;;;;;;;;5070092;28;20225;-70
2023/10/01 10:03:11;;;;;;;9.90;5.53;;;;;;;;;;5070107;28;20618;-70
2023/10/01 10:05:40;;;;;;;6.07;4.60;;;;;;;;;;5070790;28;20246;-71
2023/10/01 10:08:15;;;;;;;9.43;4.47;;;;;;;;;;5070334;28;20228;-70
2023/10/01 10:10:48;;;;;;;7.97;4.60;;;;;;;;;;5070690;28;20201;-70
2023/10/01 10:13:38;;;;;;;8.83;5.70;;;;;;;;;;5069832;28;20201;-70
2023/10/01 10:19:04;;;;;;;4.90;4.40;;;;;;;;;;5059843;28;20749;-70
2023/10/01 10:22:16;;;;;;;5.00;4.27;;;;;;;;;;5069957;28;20197;-70
2023/10/01 10:24:46;;;;;;;5.77;4.70;;;;;;;;;;5035822;28;20682;-70
2023/10/01 10:27:17;;;;;;;5.90;3.97;;;;;;;;;;5070450;28;20331;-70
2023/10/01 10:30:16;;;;;;;8.83;4.07;;;;;;;;;;5043973;28;20251;-70
2023/10/01 10:33:40;;;;;;;4.77;3.90;;;;;;;;;;5069897;28;20612;-70
2023/10/01 10:36:53;;;;;;;9.87;4.67;;;;;;;;;;5070392;28;20232;-70
2023/10/01 10:40:22;;;;;;;4.63;4.22;;;;;;;;;;5070112;28;20201;-70
2023/10/01 10:43:16;;;;;;;5.80;5.20;;;;;;;;;;5070353;28;20201;-70
2023/10/01 10:45:59;;;;;;;8.07;4.57;;;;;;;;;;5069833;28;20212;-70
2023/10/01 10:48:59;;;;;;;4.63;4.18;;;;;;;;;;5070107;28;20197;-71
2023/10/01 10:51:48;;;;;;;4.47;4.07;;;;;;;;;;5069821;28;20595;-70
2023/10/01 10:54:31;;;;;;;4.80;4.28;;;;;;;;;;5046506;28;20201;-70
2023/10/01 10:56:59;;;;;;;5.43;4.68;;;;;;;;;;5069856;28;20220;-70
2023/10/01 10:59:30;;;;;;;12.38;4.55;;;;;;;;;;5070107;28;20702;-70
2023/10/01 11:01:58;;;;;;;7.13;4.97;;;;;;;;;;5070261;28;20225;-70
2023/10/01 11:04:31;;;;;;;5.97;4.85;;;;;;;;;;5073609;28;20601;-70
2023/10/01 11:07:04;;;;;;;5.20;4.75;;;;;;;;;;5073215;28;20229;-70
2023/10/01 11:09:33;;;;;;;5.28;4.63;;;;;;;;;;5073946;28;20228;-70
2023/10/01 11:12:07;;;;;;;6.57;4.53;;;;;;;;;;5047405;28;20602;-70
2023/10/01 11:14:35;;;;;;;7.70;4.53;;;;;;;;;;5073723;28;20216;-70
2023/10/01 11:17:06;;;;;;;6.38;4.82;;;;;;;;;;5073475;28;20256;-70
2023/10/01 11:19:35;;;;;;;4.68;4.18;;;;;;;;;;5073646;28;20675;-70
2023/10/01 11:22:04;;;;;;;4.30;3.83;;;;;;;;;;5073706;28;20247;-70
2023/10/01 11:24:32;;;;;;;7.68;4.50;;;;;;;;;;5073265;28;20688;-70
2023/10/01 11:27:43;;;;;;;5.90;4.55;;;;;;;;;;5072688;28;20228;-70
2023/10/01 11:30:16;;;;;;;6.53;4.60;;;;;;;;;;5054617;28;20197;-71
2023/10/01 11:36:06;;;;;;;5.47;4.70;;;;;;;;;;5072850;28;20207;-72
2023/10/01 11:38:34;;;;;;;6.97;4.57;;;;;;;;;;5072829;28;20220;-72
2023/10/01 11:41:07;;;;;;;9.02;4.30;;;;;;;;;;5072772;28;20209;-72
2023/10/01 11:43:39;;;;;;;6.32;4.40;;;;;;;;;;5072914;28;20247;-73
2023/10/01 11:46:23;;;;;;;6.13;4.30;;;;;;;;;;5072947;28;20205;-73
2023/10/01 11:48:58;;;;;;;5.80;5.30;;;;;;;;;;5072645;28;20235;-73
2023/10/01 11:51:43;;;;;;;5.13;4.55;;;;;;;;;;5072347;28;20292;-73
2023/10/01 11:54:11;;;;;;;6.00;4.72;;;;;;;;;;5048398;28;20229;-73
2023/10/01 11:56:41;;;;;;;8.63;4.53;;;;;;;;;;5059625;28;20206;-73
2023/10/01 11:59:11;;;;;;;8.07;4.50;;;;;;;;;;5072677;28;20229;-73
2023/10/01 12:01:47;;;;;;;6.38;4.38;;;;;;;;;;5071968;28;20224;-73
2023/10/01 12:04:21;;;;;;;5.28;4.78;;;;;;;;;;5072894;28;20296;-73
2023/10/01 12:06:50;;;;;;;4.43;4.03;;;;;;;;;;5072115;28;20224;-73
2023/10/01 12:09:18;;;;;;;5.43;4.50;;;;;;;;;;5072397;28;20212;-73
2023/10/01 12:12:02;;;;;;;6.97;4.73;;;;;;;;;;5072005;28;20197;-73
2023/10/01 12:14:29;;;;;;;8.20;5.33;;;;;;;;;;5072383;28;20687;-73
2023/10/01 12:17:00;;;;;;;7.73;4.60;;;;;;;;;;5072528;28;20225;-72
2023/10/01 12:19:32;;;;;;;8.70;5.07;;;;;;;;;;5072327;28;20208;-72
2023/10/01 12:22:09;;;;;;;5.17;4.00;;;;;;;;;;5072144;28;20753;-73
2023/10/01 12:24:42;;;;;;;12.83;5.00;;;;;;;;;;5071726;28;20258;-73
2023/10/01 12:27:11;;;;;;;5.97;4.60;;;;;;;;;;5071670;28;20638;-73
2023/10/01 12:29:48;;;;;;;5.93;4.37;;;;;;;;;;5072110;28;20193;-73
2023/10/01 12:32:15;;;;;;;7.53;4.90;;;;;;;;;;5072363;28;20648;-73
2023/10/01 12:34:44;;;;;;;5.20;4.70;;;;;;;;;;5072203;28;20209;-73
2023/10/01 12:40:13;;;;;;;5.25;4.75;;;;;;;;;;5071800;28;20205;-73
2023/10/01 12:42:38;;;;;;;5.78;5.13;;;;;;;;;;5045016;28;20718;-73
2023/10/01 12:45:14;;;;;;;5.68;4.57;;;;;;;;;;5071918;28;20250;-73
2023/10/01 12:47:50;;;;;;;6.05;4.40;;;;;;;;;;5063413;28;20784;-72
2023/10/01 12:50:26;;;;;;;5.43;4.32;;;;;;;;;;5067815;28;20201;-73
2023/10/01 12:53:19;;;;;;;4.80;3.88;;;;;;;;;;5072072;28;20287;-72
2023/10/01 12:55:51;;;;;;;6.53;4.38;;;;;;;;;;5071880;28;20676;-72
2023/10/01 12:58:19;;;;;;;5.80;4.40;;;;;;;;;;5071440;28;20296;-72
2023/10/01 13:00:45;;;;;;;7.07;5.03;;;;;;;;;;5071948;28;20201;-73
2023/10/01 13:03:17;;;;;;;6.47;4.38;;;;;;;;;;5071697;28;20201;-73
2023/10/01 13:05:48;;;;;;;6.18;4.65;;;;;;;;;;5071883;28;20201;-73
2023/10/01 13:08:27;;;;;;;4.17;3.77;;;;;;;;;;5071538;28;20229;-73
2023/10/01 13:10:55;;;;;;;6.07;4.47;;;;;;;;;;5071673;28;20269;-73
2023/10/01 13:13:29;;;;;;;7.78;4.15;;;;;;;;;;5044788;28;20197;-73
2023/10/01 13:15:59;;;;;;;5.45;4.55;;;;;;;;;;5071355;28;20248;-70
2023/10/01 13:18:33;;;;;;;4.97;4.37;;;;;;;;;;5071595;28;20269;-70
2023/10/01 13:21:09;;;;;;;4.72;4.30;;;;;;;;;;5070575;28;20231;-70
2023/10/01 13:23:42;;;;;;;5.00;4.40;;;;;;;;;;5071234;28;20219;-70
2023/10/01 13:26:14;;;;;;;8.77;4.93;;;;;;;;;;5069845;28;20200;-70
2023/10/01 13:28:46;;;;;;;5.97;4.80;;;;;;;;;;5071207;28;20229;-70
2023/10/01 13:31:35;;;;;;;6.50;4.43;;;;;;;;;;5070599;28;20327;-70
2023/10/01 13:34:09;;;;;;;4.90;4.50;;;;;;;;;;5070243;28;20233;-70
2023/10/01 13:36:50;;;;;;;6.13;5.10;;;;;;;;;;5070781;28;20205;-70
2023/10/01 13:39:25;;;;;;;4.57;4.17;;;;;;;;;;5071021;28;20232;-70
2023/10/01 14:09:47;;;;;;;5.77;4.50;;;;;;;;;;5070548;28;20726;-70
2023/10/01 14:12:14;;;;;;;5.17;4.67;;;;;;;;;;5070114;28;20651;-70
2023/10/01 14:14:43;;;;;;;6.03;4.73;;;;;;;;;;5070280;28;20196;-70
2023/10/01 14:17:15;;;;;;;5.70;4.30;;;;;;;;;;5069810;28;20201;-70
2023/10/01 14:19:44;;;;;;;5.43;4.37;;;;;;;;;;5070645;28;20254;-70
2023/10/01 14:22:19;;;;;;;4.63;4.23;;;;;;;;;;5069973;28;20204;-70
2023/10/01 14:24:47;;;;;;;9.37;4.67;;;;;;;;;;5070066;28;20239;-70
2023/10/01 14:27:24;;;;;;;5.53;4.77;;;;;;;;;;5069773;28;20245;-70
2023/10/01 14:30:00;;;;;;;6.13;4.57;;;;;;;;;;5046560;28;20263;-71
2023/10/01 14:32:34;;;;;;;7.60;4.30;;;;;;;;;;5056553;28;20205;-70
2023/10/01 14:35:13;;;;;;;8.10;4.67;;;;;;;;;;5070174;28;20204;-70
2023/10/01 14:37:40;;;;;;;5.73;5.23;;;;;;;;;;5071762;28;20250;-70
2023/10/01 14:40:15;;;;;;;5.67;5.03;;;;;;;;;;5074416;28;20201;-70
2023/10/01 14:42:42;;;;;;;6.43;4.80;;;;;;;;;;5073890;28;20695;-70
2023/10/01 14:45:11;;;;;;;6.30;4.57;;;;;;;;;;5073720;28;20267;-70
2023/10/01 14:47:42;;;;;;;6.30;4.83;;;;;;;;;;5074124;28;20586;-70
2023/10/01 14:50:14;;;;;;;7.20;5.20;;;;;;;;;;5073550;28;20705;-70
2023/10/01 14:52:45;;;;;;;6.07;5.57;;;;;;;;;;5074312;28;20205;-70
2023/10/01 14:55:22;;;;;;;10.30;4.70;;;;;;;;;;5073809;28;20201;-70
2023/10/01 14:57:51;;;;;;;6.87;4.97;;;;;;;;;;5073939;28;20208;-70
2023/10/01 15:00:19;;;;;;;6.37;4.90;;;;;;;;;;5073992;28;20284;-70
2023/10/01 15:02:45;;;;;;;5.33;4.83;;;;;;;;;;5073868;28;20205;-70
2023/10/01 15:05:13;;;;;;;5.43;4.93;;;;;;;;;;5074218;28;20197;-70
2023/10/01 15:07:40;;;;;;;5.53;4.97;;;;;;;;;;5073818;28;20236;-70
2023/10/01 15:10:08;;;;;;;4.90;4.50;;;;;;;;;;5060790;28;20209;-70
2023/10/01 15:12:40;;;;;;;5.30;4.60;;;;;;;;;;5073254;28;20209;-71
2023/10/01 15:15:18;;;;;;;10.10;4.53;;;;;;;;;;5066801;28;20229;-73
2023/10/01 15:17:46;;;;;;;9.83;5.00;;;;;;;;;;5047822;28;20283;-73
2023/10/01 15:20:27;;;;;;;6.10;5.07;;;;;;;;;;5071305;28;20667;-74
2023/10/01 15:22:55;;;;;;;5.80;4.77;;;;;;;;;;5073228;28;20201;-74
2023/10/01 15:25:22;;;;;;;8.97;4.80;;;;;;;;;;5073526;28;20205;-74
2023/10/01 15:27:51;;;;;;;7.50;4.87;;;;;;;;;;5072924;28;20278;-74
2023/10/01 15:30:24;;;;;;;6.37;5.20;;;;;;;;;;5073556;28;20204;-73
2023/10/01 15:32:59;;;;;;;6.77;4.77;;;;;;;;;;5073029;28;20212;-74
2023/10/01 15:35:26;;;;;;;8.17;5.70;;;;;;;;;;5072312;28;20208;-74
2023/10/01 15:37:53;;;;;;;8.87;5.23;;;;;;;;;;5072983;28;20201;-73
2023/10/01 15:40:24;;;;;;;6.27;5.10;;;;;;;;;;5072729;28;20620;-73
2023/10/01 15:42:54;;;;;;;9.97;5.60;;;;;;;;;;5073049;28;20194;-74
2023/10/01 15:45:21;;;;;;;14.30;4.50;;;;;;;;;;5072577;28;20201;-75
2023/10/01 15:47:47;;;;;;;7.63;5.40;;;;;;;;;;5072433;28;20225;-77
2023/10/01 15:50:15;;;;;;;5.03;4.63;;;;;;;;;;5073278;28;20622;-78
2023/10/01 15:52:50;;;;;;;6.50;5.07;;;;;;;;;;5073168;28;20204;-78
2023/10/01 15:55:17;;;;;;;8.27;5.03;;;;;;;;;;5072305;28;20207;-77
2023/10/01 15:57:53;;;;;;;5.67;5.10;;;;;;;;;;5072622;28;20266;-76
2023/10/01 16:00:26;;;;;;;7.07;5.53;;;;;;;;;;5072827;28;20638;-76
2023/10/01 16:03:02;;;;;;;7.43;5.70;;;;;;;;;;5072881;28;20615;-76
2023/10/01 16:05:31;;;;;;;142.53;110.23;;;;;;;;;;5047567;28;20201;-76